createdAt,value
2019-05-26T00:00:33.488Z,29.30
2019-05-26T00:01:33.377Z,29.00
2019-05-26T00:02:33.302Z,28.10
2019-05-26T00:03:33.192Z,29.10
2019-05-26T00:04:33.091Z,29.90
2019-05-26T00:05:33.014Z,28.80
2019-05-26T00:06:32.900Z,29.40
2019-05-26T00:07:32.804Z,29.90
2019-05-26T00:08:32.710Z,29.60
2019-05-26T00:09:32.616Z,29.90
2019-05-26T00:10:32.531Z,30.40
2019-05-26T00:11:32.424Z,30.80
2019-05-26T00:12:32.329Z,29.50
2019-05-26T00:13:32.239Z,29.50
2019-05-26T00:14:32.137Z,30.20
2019-05-26T00:15:32.056Z,31.30
2019-05-26T00:16:31.950Z,31.30
2019-05-26T00:17:31.853Z,32.60
2019-05-26T00:18:33.425Z,33.50
2019-05-26T00:19:31.663Z,33.60
2019-05-26T00:20:31.581Z,33.50
2019-05-26T00:21:31.473Z,32.20
2019-05-26T00:22:31.375Z,31.60
2019-05-26T00:23:31.279Z,32.80
2019-05-26T00:24:31.184Z,35.20
2019-05-26T00:25:31.107Z,34.60
2019-05-26T00:26:30.996Z,35.90
2019-05-26T00:27:30.901Z,34.70
2019-05-26T00:28:30.804Z,33.90
2019-05-26T00:29:30.752Z,34.20
2019-05-26T00:30:30.626Z,34.10
2019-05-26T00:31:30.517Z,34.40
2019-05-26T00:32:30.433Z,34.40
2019-05-26T00:33:30.336Z,34.40
2019-05-26T00:34:30.232Z,34.40
2019-05-26T00:35:30.152Z,35.10
2019-05-26T00:36:30.045Z,34.20
2019-05-26T00:37:45.662Z,35.90
2019-05-26T00:38:29.850Z,35.50
2019-05-26T00:39:29.757Z,35.10
2019-05-26T00:40:29.676Z,34.30
2019-05-26T00:41:29.568Z,35.10
2019-05-26T00:42:29.470Z,34.50
2019-05-26T00:43:29.373Z,34.60
2019-05-26T00:44:29.280Z,33.70
2019-05-26T00:45:29.197Z,35.00
2019-05-26T00:46:29.085Z,35.40
2019-05-26T00:47:28.990Z,35.60
2019-05-26T00:48:28.894Z,34.70
2019-05-26T00:49:28.799Z,34.30
2019-05-26T00:50:28.718Z,34.70
2019-05-26T00:51:28.607Z,34.20
2019-05-26T00:52:28.512Z,34.00
2019-05-26T00:53:28.423Z,34.60
2019-05-26T00:54:28.322Z,34.40
2019-05-26T00:55:28.238Z,35.00
2019-05-26T00:56:28.128Z,34.50
2019-05-26T00:57:28.035Z,33.40
2019-05-26T00:58:27.937Z,34.30
2019-05-26T00:59:27.857Z,33.80
2019-05-26T01:00:27.747Z,34.10
2019-05-26T01:01:27.667Z,35.70
2019-05-26T01:02:27.557Z,34.90
2019-05-26T01:03:27.459Z,38.60
2019-05-26T01:04:27.420Z,40.30
2019-05-26T01:05:27.267Z,42.80
2019-05-26T01:06:27.184Z,39.50
2019-05-26T01:07:27.075Z,38.80
2019-05-26T01:08:26.980Z,36.50
2019-05-26T01:09:26.883Z,36.00
2019-05-26T01:10:26.813Z,37.30
2019-05-26T01:11:26.705Z,39.90
2019-05-26T01:12:26.597Z,42.30
2019-05-26T01:13:26.501Z,42.90
2019-05-26T01:14:26.405Z,44.60
2019-05-26T01:15:26.309Z,46.90
2019-05-26T01:16:26.227Z,48.50
2019-05-26T01:17:26.122Z,51.10
2019-05-26T01:18:26.022Z,50.60
2019-05-26T01:19:25.926Z,65.40
2019-05-26T01:20:25.831Z,63.20
2019-05-26T01:21:25.772Z,52.70
2019-05-26T01:22:25.742Z,49.30
2019-05-26T01:23:25.544Z,45.20
2019-05-26T01:24:25.496Z,41.90
2019-05-26T01:25:25.351Z,40.20
2019-05-26T01:26:25.267Z,38.60
2019-05-26T01:27:25.159Z,37.00
2019-05-26T01:28:25.062Z,37.30
2019-05-26T01:29:25.079Z,35.60
2019-05-26T01:30:24.873Z,37.60
2019-05-26T01:31:24.789Z,42.20
2019-05-26T01:32:24.679Z,43.80
2019-05-26T01:33:24.584Z,50.00
2019-05-26T01:34:24.488Z,51.40
2019-05-26T01:35:24.394Z,50.40
2019-05-26T01:36:24.411Z,48.70
2019-05-26T01:37:24.200Z,48.60
2019-05-26T01:38:24.663Z,50.30
2019-05-26T01:39:24.008Z,48.30
2019-05-26T01:40:23.909Z,49.50
2019-05-26T01:41:23.826Z,47.30
2019-05-26T01:42:23.714Z,59.50
2019-05-26T01:43:23.723Z,52.10
2019-05-26T01:44:23.522Z,120.80
2019-05-26T01:45:23.426Z,110.70
2019-05-26T01:46:23.344Z,103.90
2019-05-26T01:47:23.236Z,106.90
2019-05-26T01:48:23.139Z,119.60
2019-05-26T01:49:23.047Z,98.00
2019-05-26T01:50:23.046Z,78.00
2019-05-26T01:51:22.868Z,54.90
2019-05-26T01:52:22.756Z,49.00
2019-05-26T01:53:22.660Z,43.90
2019-05-26T01:54:22.561Z,41.10
2019-05-26T01:55:22.465Z,39.60
2019-05-26T01:56:22.370Z,37.50
2019-05-26T01:57:22.410Z,50.10
2019-05-26T01:58:22.175Z,63.40
2019-05-26T01:59:22.080Z,68.50
2019-05-26T02:00:21.983Z,87.60
2019-05-26T02:01:21.888Z,93.10
2019-05-26T02:02:21.807Z,88.70
2019-05-26T02:03:21.693Z,95.40
2019-05-26T02:04:21.698Z,73.30
2019-05-26T02:05:21.504Z,51.90
2019-05-26T02:06:21.407Z,50.40
2019-05-26T02:07:21.325Z,47.20
2019-05-26T02:08:21.217Z,93.20
2019-05-26T02:09:21.115Z,98.40
2019-05-26T02:10:21.018Z,67.10
2019-05-26T02:11:21.033Z,62.20
2019-05-26T02:12:20.842Z,45.00
2019-05-26T02:13:20.733Z,42.00
2019-05-26T02:14:20.633Z,41.50
2019-05-26T02:15:20.542Z,39.90
2019-05-26T02:16:20.440Z,44.10
2019-05-26T02:17:20.375Z,46.00
2019-05-26T02:18:20.350Z,49.30
2019-05-26T02:19:20.150Z,59.00
2019-05-26T02:20:20.054Z,52.20
2019-05-26T02:21:19.958Z,44.40
2019-05-26T02:22:19.875Z,40.20
2019-05-26T02:23:19.765Z,38.30
2019-05-26T02:24:19.671Z,38.30
2019-05-26T02:25:19.679Z,37.80
2019-05-26T02:26:19.476Z,36.30
2019-05-26T02:27:19.393Z,36.10
2019-05-26T02:28:19.289Z,36.00
2019-05-26T02:29:19.190Z,36.40
2019-05-26T02:30:19.097Z,34.80
2019-05-26T02:31:18.994Z,33.40
2019-05-26T02:32:19.025Z,32.60
2019-05-26T02:33:18.803Z,31.10
2019-05-26T02:34:18.709Z,31.70
2019-05-26T02:35:18.626Z,31.10
2019-05-26T02:36:18.514Z,32.10
2019-05-26T02:37:18.433Z,32.50
2019-05-26T02:38:18.455Z,32.00
2019-05-26T02:39:18.245Z,31.90
2019-05-26T02:40:18.130Z,31.70
2019-05-26T02:41:18.052Z,33.10
2019-05-26T02:42:17.953Z,33.50
2019-05-26T02:43:17.841Z,31.10
2019-05-26T02:44:17.744Z,34.40
2019-05-26T02:45:17.666Z,32.20
2019-05-26T02:46:17.654Z,35.50
2019-05-26T02:47:17.458Z,34.70
2019-05-26T02:48:17.374Z,37.20
2019-05-26T02:49:17.265Z,41.40
2019-05-26T02:50:17.167Z,38.70
2019-05-26T02:51:17.081Z,39.40
2019-05-26T02:52:16.979Z,40.00
2019-05-26T02:53:16.897Z,39.30
2019-05-26T02:54:16.806Z,37.00
2019-05-26T02:55:16.688Z,37.60
2019-05-26T02:56:16.595Z,40.60
2019-05-26T02:57:16.495Z,40.20
2019-05-26T02:58:16.422Z,43.40
2019-05-26T02:59:16.301Z,42.20
2019-05-26T03:00:16.208Z,45.80
2019-05-26T03:01:16.111Z,44.40
2019-05-26T03:02:16.017Z,45.30
2019-05-26T03:03:15.944Z,67.80
2019-05-26T03:04:15.822Z,96.80
2019-05-26T03:05:15.726Z,95.00
2019-05-26T03:06:15.627Z,49.90
2019-05-26T03:07:15.536Z,46.20
2019-05-26T03:08:15.453Z,42.50
2019-05-26T03:09:22.774Z,60.80
2019-05-26T03:10:15.273Z,48.00
2019-05-26T03:11:15.149Z,44.90
2019-05-26T03:12:15.052Z,44.60
2019-05-26T03:13:14.970Z,71.10
2019-05-26T03:14:14.860Z,60.60
2019-05-26T03:15:14.765Z,56.50
2019-05-26T03:16:14.669Z,49.40
2019-05-26T03:17:14.572Z,53.50
2019-05-26T03:18:14.508Z,48.50
2019-05-26T03:19:14.379Z,47.50
2019-05-26T03:20:14.300Z,50.60
2019-05-26T03:21:14.188Z,44.30
2019-05-26T03:22:14.091Z,40.80
2019-05-26T03:23:14.021Z,41.20
2019-05-26T03:24:13.900Z,43.10
2019-05-26T03:25:13.804Z,45.50
2019-05-26T03:26:13.710Z,42.70
2019-05-26T03:27:13.612Z,43.10
2019-05-26T03:28:13.528Z,46.00
2019-05-26T03:29:13.530Z,42.20
2019-05-26T03:30:13.345Z,49.50
2019-05-26T03:31:13.265Z,60.80
2019-05-26T03:32:13.132Z,43.90
2019-05-26T03:33:13.049Z,57.20
2019-05-26T03:34:12.947Z,45.00
2019-05-26T03:35:12.865Z,44.90
2019-05-26T03:36:12.762Z,52.70
2019-05-26T03:37:12.653Z,48.50
2019-05-26T03:38:12.567Z,52.20
2019-05-26T03:39:12.462Z,60.30
2019-05-26T03:40:12.363Z,57.50
2019-05-26T03:41:12.267Z,44.20
2019-05-26T03:42:12.168Z,64.30
2019-05-26T03:43:12.089Z,57.80
2019-05-26T03:44:11.976Z,59.10
2019-05-26T03:45:11.879Z,65.30
2019-05-26T03:46:11.790Z,68.60
2019-05-26T03:47:16.429Z,62.60
2019-05-26T03:48:11.613Z,50.70
2019-05-26T03:49:11.526Z,49.40
2019-05-26T03:50:11.399Z,59.80
2019-05-26T03:51:11.305Z,44.20
2019-05-26T03:52:11.217Z,48.50
2019-05-26T03:53:11.114Z,53.10
2019-05-26T03:54:11.031Z,50.60
2019-05-26T03:55:10.919Z,53.90
2019-05-26T03:56:10.827Z,61.00
2019-05-26T03:57:10.731Z,58.90
2019-05-26T03:58:10.633Z,64.10
2019-05-26T03:59:10.548Z,90.10
2019-05-26T04:00:10.441Z,90.60
2019-05-26T04:01:10.350Z,62.10
2019-05-26T04:02:10.256Z,79.80
2019-05-26T04:03:10.152Z,70.70
2019-05-26T04:04:10.072Z,112.90
2019-05-26T04:05:09.960Z,102.90
2019-05-26T04:06:09.867Z,84.90
2019-05-26T04:07:09.768Z,89.10
2019-05-26T04:08:09.669Z,77.50
2019-05-26T04:09:09.718Z,41.40
2019-05-26T04:10:09.479Z,40.60
2019-05-26T04:11:09.428Z,39.40
2019-05-26T04:12:09.289Z,32.90
2019-05-26T04:13:09.194Z,31.10
2019-05-26T04:14:09.110Z,33.90
2019-05-26T04:15:08.999Z,33.60
2019-05-26T04:16:09.014Z,35.10
2019-05-26T04:17:08.809Z,34.10
2019-05-26T04:18:08.711Z,33.60
2019-05-26T04:19:08.631Z,31.90
2019-05-26T04:20:08.519Z,31.90
2019-05-26T04:21:08.426Z,30.00
2019-05-26T04:22:08.335Z,31.60
2019-05-26T04:23:08.349Z,33.10
2019-05-26T04:24:08.151Z,27.50
2019-05-26T04:25:08.041Z,27.40
2019-05-26T04:26:07.949Z,29.30
2019-05-26T04:27:07.858Z,30.90
2019-05-26T04:28:07.753Z,33.10
2019-05-26T04:29:07.659Z,52.10
2019-05-26T04:30:07.681Z,44.00
2019-05-26T04:31:07.468Z,41.10
2019-05-26T04:32:07.373Z,54.30
2019-05-26T04:33:07.274Z,47.60
2019-05-26T04:34:07.195Z,37.20
2019-05-26T04:35:07.104Z,28.10
2019-05-26T04:36:06.987Z,32.30
2019-05-26T04:37:06.996Z,34.70
2019-05-26T04:38:06.798Z,33.10
2019-05-26T04:39:06.699Z,45.90
2019-05-26T04:40:25.147Z,36.10
2019-05-26T04:41:06.508Z,42.20
2019-05-26T04:42:06.417Z,31.10
2019-05-26T04:43:06.314Z,23.80
2019-05-26T04:44:06.328Z,22.90
2019-05-26T04:45:06.240Z,21.00
2019-05-26T04:46:06.031Z,21.20
2019-05-26T04:47:05.931Z,20.30
2019-05-26T04:48:05.838Z,21.70
2019-05-26T04:49:05.741Z,20.80
2019-05-26T04:50:05.664Z,20.60
2019-05-26T04:51:05.658Z,24.00
2019-05-26T04:52:05.459Z,34.00
2019-05-26T04:53:07.207Z,43.20
2019-05-26T04:54:05.269Z,47.10
2019-05-26T04:55:05.181Z,36.40
2019-05-26T04:56:05.071Z,27.50
2019-05-26T04:57:04.983Z,24.50
2019-05-26T04:58:05.009Z,20.70
2019-05-26T04:59:04.786Z,19.10
2019-05-26T05:00:04.723Z,19.50
2019-05-26T05:01:04.595Z,19.40
2019-05-26T05:02:04.506Z,19.80
2019-05-26T05:03:04.407Z,20.20
2019-05-26T05:04:04.313Z,20.10
2019-05-26T05:05:04.338Z,20.60
2019-05-26T05:06:04.121Z,22.00
2019-05-26T05:07:04.026Z,21.70
2019-05-26T05:08:03.931Z,22.50
2019-05-26T05:09:03.835Z,21.40
2019-05-26T05:10:03.753Z,22.00
2019-05-26T05:11:03.643Z,21.10
2019-05-26T05:12:03.656Z,22.30
2019-05-26T05:13:03.474Z,21.70
2019-05-26T05:14:03.360Z,20.60
2019-05-26T05:15:03.282Z,20.10
2019-05-26T05:16:03.181Z,19.30
2019-05-26T05:17:03.088Z,20.30
2019-05-26T05:18:02.981Z,20.50
2019-05-26T05:19:02.992Z,20.10
2019-05-26T05:20:02.822Z,19.70
2019-05-26T05:21:02.710Z,18.50
2019-05-26T05:22:02.607Z,20.70
2019-05-26T05:23:02.508Z,20.40
2019-05-26T05:24:02.424Z,20.60
2019-05-26T05:25:02.319Z,21.60
2019-05-26T05:26:02.346Z,21.10
2019-05-26T05:27:02.126Z,20.10
2019-05-26T05:28:02.032Z,19.60
2019-05-26T05:29:01.937Z,19.30
2019-05-26T05:30:01.845Z,19.30
2019-05-26T05:31:01.761Z,18.20
2019-05-26T05:32:01.656Z,18.70
2019-05-26T05:33:01.668Z,18.20
2019-05-26T05:34:01.468Z,19.80
2019-05-26T05:35:01.371Z,20.40
2019-05-26T05:36:01.288Z,19.60
2019-05-26T05:37:01.182Z,20.50
2019-05-26T05:38:01.087Z,20.60
2019-05-26T05:39:00.992Z,22.30
2019-05-26T05:40:00.897Z,21.70
2019-05-26T05:41:00.821Z,22.10
2019-05-26T05:42:00.708Z,21.30
2019-05-26T05:43:00.618Z,20.20
2019-05-26T05:44:00.522Z,20.70
2019-05-26T05:45:00.430Z,21.10
2019-05-26T05:46:00.344Z,19.70
2019-05-26T05:47:00.239Z,19.80
2019-05-26T05:48:00.143Z,20.60
2019-05-26T05:49:00.050Z,20.40
2019-05-26T05:49:59.957Z,19.70
2019-05-26T05:50:59.936Z,18.60
2019-05-26T05:51:59.765Z,18.70
2019-05-26T05:52:59.675Z,18.60
2019-05-26T05:53:59.577Z,19.10
2019-05-26T05:54:59.483Z,18.70
2019-05-26T05:55:59.460Z,19.10
2019-05-26T05:56:59.295Z,19.40
2019-05-26T05:57:59.203Z,19.70
2019-05-26T05:58:59.108Z,19.80
2019-05-26T05:59:59.012Z,20.10
2019-05-26T06:00:58.934Z,20.80
2019-05-26T06:01:58.827Z,20.10
2019-05-26T06:02:58.733Z,20.10
2019-05-26T06:03:58.639Z,20.20
2019-05-26T06:04:58.546Z,20.70
2019-05-26T06:05:58.471Z,20.10
2019-05-26T06:06:58.380Z,18.70
2019-05-26T06:07:58.264Z,18.00
2019-05-26T06:08:58.169Z,15.30
2019-05-26T06:09:58.076Z,14.30
2019-05-26T06:10:58.000Z,13.20
2019-05-26T06:11:57.889Z,12.50
2019-05-26T06:12:57.796Z,12.40
2019-05-26T06:13:57.703Z,12.80
2019-05-26T06:14:57.652Z,13.30
2019-05-26T06:15:57.530Z,13.00
2019-05-26T06:16:57.423Z,13.20
2019-05-26T06:17:57.331Z,13.40
2019-05-26T06:18:57.237Z,13.10
2019-05-26T06:19:57.145Z,13.00
2019-05-26T06:20:57.065Z,12.10
2019-05-26T06:21:56.963Z,11.30
2019-05-26T06:22:56.865Z,11.00
2019-05-26T06:23:56.772Z,10.60
2019-05-26T06:24:56.679Z,12.00
2019-05-26T06:25:56.603Z,11.40
2019-05-26T06:26:56.496Z,11.90
2019-05-26T06:27:56.474Z,11.70
2019-05-26T06:28:56.310Z,11.40
2019-05-26T06:29:59.159Z,11.30
2019-05-26T06:30:56.125Z,11.10
2019-05-26T06:31:56.542Z,11.60
2019-05-26T06:32:55.943Z,11.00
2019-05-26T06:33:55.849Z,10.50
2019-05-26T06:34:55.754Z,11.50
2019-05-26T06:35:55.680Z,11.30
2019-05-26T06:36:55.571Z,11.00
2019-05-26T06:37:55.487Z,12.10
2019-05-26T06:38:55.383Z,11.30
2019-05-26T06:39:55.291Z,11.00
2019-05-26T06:40:55.205Z,10.20
2019-05-26T06:41:55.121Z,9.90
2019-05-26T06:42:55.117Z,9.80
2019-05-26T06:43:54.925Z,9.80
2019-05-26T06:44:54.839Z,9.30
2019-05-26T06:45:54.785Z,9.50
2019-05-26T06:46:54.663Z,8.70
2019-05-26T06:47:54.560Z,8.90
2019-05-26T06:48:54.467Z,8.90
2019-05-26T06:49:54.377Z,8.70
2019-05-26T06:50:54.285Z,9.00
2019-05-26T06:51:54.207Z,8.50
2019-05-26T06:52:54.105Z,8.20
2019-05-26T06:53:54.017Z,7.50
2019-05-26T06:54:53.925Z,8.60
2019-05-26T06:55:53.845Z,10.70
2019-05-26T06:56:53.870Z,11.30
2019-05-26T06:57:53.656Z,8.80
2019-05-26T06:58:53.583Z,7.60
2019-05-26T06:59:53.476Z,7.30
2019-05-26T07:00:53.450Z,6.40
2019-05-26T07:01:53.315Z,6.40
2019-05-26T07:02:53.214Z,6.30
2019-05-26T07:03:53.230Z,6.30
2019-05-26T07:04:53.037Z,6.20
2019-05-26T07:05:52.951Z,5.70
2019-05-26T07:06:52.874Z,6.40
2019-05-26T07:07:52.771Z,6.40
2019-05-26T07:08:52.685Z,5.90
2019-05-26T07:09:52.598Z,5.60
2019-05-26T07:10:52.623Z,5.50
2019-05-26T07:11:59.634Z,5.70
2019-05-26T07:12:52.336Z,5.40
2019-05-26T07:13:52.250Z,5.90
2019-05-26T07:14:52.162Z,6.00
2019-05-26T07:15:52.077Z,5.70
2019-05-26T07:16:52.006Z,5.40
2019-05-26T07:17:52.009Z,6.00
2019-05-26T07:18:51.827Z,5.60
2019-05-26T07:19:51.731Z,5.50
2019-05-26T07:20:51.646Z,6.10
2019-05-26T07:21:51.573Z,5.40
2019-05-26T07:22:51.480Z,5.80
2019-05-26T07:23:51.388Z,5.50
2019-05-26T07:24:51.408Z,6.40
2019-05-26T07:25:51.217Z,5.30
2019-05-26T07:26:51.145Z,5.60
2019-05-26T07:27:51.050Z,5.20
2019-05-26T07:28:51.024Z,5.20
2019-05-26T07:29:50.878Z,5.00
2019-05-26T07:30:50.809Z,4.70
2019-05-26T07:31:50.833Z,4.60
2019-05-26T07:32:50.622Z,4.60
2019-05-26T07:33:50.538Z,4.70
2019-05-26T07:34:50.484Z,4.30
2019-05-26T07:35:50.369Z,3.90
2019-05-26T07:36:50.287Z,3.70
2019-05-26T07:37:50.213Z,4.20
2019-05-26T07:38:50.219Z,3.90
2019-05-26T07:39:50.031Z,3.80
2019-05-26T07:40:49.945Z,3.90
2019-05-26T07:42:08.202Z,4.30
2019-05-26T07:42:49.811Z,3.90
2019-05-26T07:43:49.693Z,3.70
2019-05-26T07:44:49.609Z,3.80
2019-05-26T07:45:49.626Z,3.90
2019-05-26T07:46:49.438Z,3.70
2019-05-26T07:47:49.374Z,4.10
2019-05-26T07:48:49.273Z,4.00
2019-05-26T07:49:49.184Z,3.80
2019-05-26T07:50:49.100Z,3.60
2019-05-26T07:51:49.017Z,3.10
2019-05-26T07:52:49.110Z,3.20
2019-05-26T07:53:48.850Z,2.80
2019-05-26T07:54:48.764Z,2.90
2019-05-26T07:55:48.681Z,2.70
2019-05-26T07:56:48.599Z,2.60
2019-05-26T07:57:48.527Z,2.30
2019-05-26T07:58:48.430Z,2.40
2019-05-26T07:59:48.447Z,2.50
2019-05-26T08:00:48.263Z,2.40
2019-05-26T08:01:48.179Z,2.50
2019-05-26T08:02:48.115Z,2.20
2019-05-26T08:03:48.014Z,1.90
2019-05-26T08:04:47.933Z,9.10
2019-05-26T08:05:47.846Z,2.70
2019-05-26T08:06:47.763Z,2.60
2019-05-26T08:07:47.693Z,2.70
2019-05-26T08:08:47.596Z,4.30
2019-05-26T08:09:47.514Z,2.40
2019-05-26T08:10:47.428Z,2.00
2019-05-26T08:11:47.348Z,2.40
2019-05-26T08:12:47.278Z,2.60
2019-05-26T08:13:47.180Z,2.70
2019-05-26T08:14:47.100Z,2.30
2019-05-26T08:15:47.025Z,2.70
2019-05-26T08:16:46.929Z,2.30
2019-05-26T08:17:46.864Z,2.40
2019-05-26T08:18:46.764Z,2.10
2019-05-26T08:19:46.686Z,1.70
2019-05-26T08:20:46.597Z,1.40
2019-05-26T08:21:46.513Z,1.30
2019-05-26T08:22:46.444Z,1.60
2019-05-26T08:23:46.348Z,1.70
2019-05-26T08:24:46.265Z,1.80
2019-05-26T08:25:46.180Z,1.50
2019-05-26T08:26:46.120Z,1.70
2019-05-26T08:27:46.015Z,1.80
2019-05-26T08:28:45.969Z,1.90
2019-05-26T08:29:45.847Z,1.60
2019-05-26T08:30:45.767Z,1.70
2019-05-26T08:31:45.684Z,2.00
2019-05-26T08:32:45.608Z,1.50
2019-05-26T08:33:45.531Z,1.70
2019-05-26T08:34:45.432Z,1.60
2019-05-26T08:35:45.350Z,1.40
2019-05-26T08:36:45.266Z,1.50
2019-05-26T08:37:45.182Z,1.50
2019-05-26T08:38:45.117Z,1.50
2019-05-26T08:39:48.306Z,1.50
2019-05-26T08:40:44.938Z,1.50
2019-05-26T08:41:44.851Z,1.40
2019-05-26T08:42:44.964Z,1.50
2019-05-26T08:43:44.703Z,1.70
2019-05-26T08:44:44.602Z,1.80
2019-05-26T08:45:44.521Z,2.60
2019-05-26T08:46:44.436Z,2.40
2019-05-26T08:47:44.356Z,1.60
2019-05-26T08:48:44.288Z,1.70
2019-05-26T08:49:44.191Z,1.70
2019-05-26T08:50:44.107Z,1.80
2019-05-26T08:51:44.023Z,2.00
2019-05-26T08:52:43.943Z,1.90
2019-05-26T08:53:43.875Z,2.10
2019-05-26T08:54:43.776Z,2.20
2019-05-26T08:55:43.695Z,2.10
2019-05-26T08:56:43.613Z,1.70
2019-05-26T08:57:43.528Z,1.80
2019-05-26T08:58:43.467Z,1.90
2019-05-26T08:59:43.371Z,2.00
2019-05-26T09:00:43.346Z,1.70
2019-05-26T09:01:43.200Z,1.70
2019-05-26T09:02:43.118Z,2.20
2019-05-26T09:03:43.047Z,2.70
2019-05-26T09:04:42.952Z,2.50
2019-05-26T09:05:42.870Z,2.30
2019-05-26T09:06:42.788Z,2.10
2019-05-26T09:07:42.708Z,2.20
2019-05-26T09:08:42.636Z,2.70
2019-05-26T09:09:42.539Z,2.20
2019-05-26T09:10:42.459Z,2.20
2019-05-26T09:11:42.376Z,2.30
2019-05-26T09:12:42.289Z,2.20
2019-05-26T09:13:42.219Z,2.30
2019-05-26T09:14:42.123Z,1.90
2019-05-26T09:15:42.045Z,2.10
2019-05-26T09:16:41.958Z,2.00
2019-05-26T09:17:41.875Z,2.40
2019-05-26T09:18:41.802Z,2.10
2019-05-26T09:19:41.707Z,2.20
2019-05-26T09:20:41.621Z,2.40
2019-05-26T09:21:41.562Z,2.20
2019-05-26T09:22:41.566Z,1.90
2019-05-26T09:23:41.387Z,1.80
2019-05-26T09:24:41.288Z,1.80
2019-05-26T09:25:41.206Z,2.00
2019-05-26T09:26:41.127Z,1.80
2019-05-26T09:27:41.040Z,1.70
2019-05-26T09:28:40.971Z,1.90
2019-05-26T09:29:40.871Z,2.00
2019-05-26T09:30:40.789Z,2.00
2019-05-26T09:31:40.711Z,1.80
2019-05-26T09:32:40.623Z,2.00
2019-05-26T09:33:40.554Z,2.10
2019-05-26T09:34:40.460Z,2.00
2019-05-26T09:35:40.377Z,1.90
2019-05-26T09:36:40.292Z,2.00
2019-05-26T09:37:40.208Z,1.90
2019-05-26T09:38:40.128Z,1.70
2019-05-26T09:39:40.058Z,1.80
2019-05-26T09:40:39.961Z,1.90
2019-05-26T09:41:39.878Z,2.10
2019-05-26T09:42:39.794Z,1.90
2019-05-26T09:43:39.817Z,2.00
2019-05-26T09:44:39.647Z,2.00
2019-05-26T09:45:39.548Z,1.90
2019-05-26T09:46:39.474Z,2.10
2019-05-26T09:47:39.381Z,1.90
2019-05-26T09:48:39.299Z,2.10
2019-05-26T09:49:39.239Z,2.00
2019-05-26T09:50:39.252Z,1.80
2019-05-26T09:51:39.049Z,1.70
2019-05-26T09:52:38.962Z,1.60
2019-05-26T09:53:38.885Z,1.80
2019-05-26T09:54:38.810Z,1.70
2019-05-26T09:55:38.716Z,1.80
2019-05-26T09:56:38.632Z,2.00
2019-05-26T09:57:38.546Z,1.70
2019-05-26T09:58:38.471Z,1.70
2019-05-26T09:59:38.398Z,1.40
2019-05-26T10:00:38.298Z,1.60
2019-05-26T10:01:38.215Z,1.70
2019-05-26T10:02:38.136Z,1.50
2019-05-26T10:03:38.055Z,1.50
2019-05-26T10:04:38.194Z,1.60
2019-05-26T10:05:37.882Z,1.70
2019-05-26T10:06:37.798Z,1.60
2019-05-26T10:07:37.715Z,1.50
2019-05-26T10:08:37.646Z,1.40
2019-05-26T10:09:37.563Z,1.50
2019-05-26T10:10:37.467Z,1.40
2019-05-26T10:11:37.385Z,1.20
2019-05-26T10:12:37.301Z,1.30
2019-05-26T10:13:37.220Z,1.40
2019-05-26T10:14:37.147Z,1.50
2019-05-26T10:15:37.053Z,1.40
2019-05-26T10:16:36.976Z,1.40
2019-05-26T10:17:36.901Z,1.30
2019-05-26T10:18:36.808Z,1.50
2019-05-26T10:19:36.750Z,1.30
2019-05-26T10:20:36.671Z,1.40
2019-05-26T10:21:36.559Z,1.40
2019-05-26T10:22:36.475Z,1.30
2019-05-26T10:23:36.392Z,1.40
2019-05-26T10:24:36.323Z,1.50
2019-05-26T10:25:36.344Z,1.60
2019-05-26T10:26:36.144Z,1.60
2019-05-26T10:27:36.062Z,1.70
2019-05-26T10:28:35.980Z,1.80
2019-05-26T10:29:35.914Z,1.90
2019-05-26T10:30:35.815Z,2.00
2019-05-26T10:31:35.734Z,2.30
2019-05-26T10:32:35.795Z,2.20
2019-05-26T10:33:35.571Z,2.20
2019-05-26T10:34:35.499Z,1.80
2019-05-26T10:35:35.405Z,2.00
2019-05-26T10:36:35.321Z,1.80
2019-05-26T10:37:35.253Z,1.70
2019-05-26T10:38:35.155Z,1.70
2019-05-26T10:39:35.194Z,1.60
2019-05-26T10:40:34.989Z,1.90
2019-05-26T10:41:34.907Z,1.60
2019-05-26T10:42:34.831Z,1.80
2019-05-26T10:43:46.915Z,1.80
2019-05-26T10:44:34.669Z,1.80
2019-05-26T10:45:34.603Z,2.00
2019-05-26T10:46:34.486Z,1.70
2019-05-26T10:47:34.401Z,1.60
2019-05-26T10:48:34.318Z,1.60
2019-05-26T10:49:34.248Z,2.00
2019-05-26T10:50:34.151Z,1.50
2019-05-26T10:51:34.068Z,1.80
2019-05-26T10:52:33.984Z,1.70
2019-05-26T10:53:33.899Z,1.40
2019-05-26T10:54:33.838Z,2.50
2019-05-26T10:55:33.738Z,1.50
2019-05-26T10:56:33.652Z,1.50
2019-05-26T10:57:33.567Z,1.50
2019-05-26T10:58:33.487Z,1.60
2019-05-26T10:59:33.420Z,1.30
2019-05-26T11:00:33.400Z,1.40
2019-05-26T11:01:33.237Z,1.90
2019-05-26T11:02:33.155Z,1.70
2019-05-26T11:03:33.072Z,1.70
2019-05-26T11:04:32.992Z,1.70
2019-05-26T11:05:32.922Z,1.80
2019-05-26T11:06:32.826Z,1.40
2019-05-26T11:07:32.753Z,1.50
2019-05-26T11:08:32.661Z,1.50
2019-05-26T11:09:32.579Z,1.70
2019-05-26T11:10:32.510Z,1.60
2019-05-26T11:11:32.413Z,1.50
2019-05-26T11:12:32.333Z,1.50
2019-05-26T11:13:32.267Z,1.70
2019-05-26T11:14:32.184Z,1.70
2019-05-26T11:15:32.101Z,1.80
2019-05-26T11:16:32.004Z,1.60
2019-05-26T11:17:31.915Z,1.50
2019-05-26T11:18:31.842Z,1.60
2019-05-26T11:19:31.754Z,1.70
2019-05-26T11:20:31.687Z,1.90
2019-05-26T11:21:31.607Z,2.00
2019-05-26T11:22:31.504Z,2.10
2019-05-26T11:23:31.459Z,1.80
2019-05-26T11:24:31.348Z,1.80
2019-05-26T11:25:31.275Z,1.70
2019-05-26T11:26:31.176Z,1.80
2019-05-26T11:27:31.093Z,1.60
2019-05-26T11:28:31.014Z,1.70
2019-05-26T11:29:30.930Z,1.80
2019-05-26T11:30:30.861Z,2.70
2019-05-26T11:31:30.766Z,2.80
2019-05-26T11:32:30.685Z,2.00
2019-05-26T11:33:30.602Z,1.60
2019-05-26T11:34:30.523Z,1.70
2019-05-26T11:35:30.453Z,2.10
2019-05-26T11:36:30.366Z,1.90
2019-05-26T11:37:30.277Z,1.40
2019-05-26T11:38:33.240Z,1.70
2019-05-26T11:39:30.117Z,2.00
2019-05-26T11:40:30.048Z,2.10
2019-05-26T11:41:29.955Z,3.30
2019-05-26T11:42:29.871Z,1.90
2019-05-26T11:43:29.788Z,1.80
2019-05-26T11:44:29.710Z,2.10
2019-05-26T11:45:29.641Z,2.00
2019-05-26T11:46:29.545Z,1.80
2019-05-26T11:47:29.468Z,1.60
2019-05-26T11:48:29.385Z,1.60
2019-05-26T11:49:29.303Z,1.60
2019-05-26T11:50:29.239Z,1.60
2019-05-26T11:51:29.145Z,1.70
2019-05-26T11:52:29.062Z,1.70
2019-05-26T11:53:28.977Z,1.70
2019-05-26T11:54:28.899Z,1.50
2019-05-26T11:55:28.831Z,1.80
2019-05-26T11:56:28.845Z,1.80
2019-05-26T11:57:28.653Z,1.80
2019-05-26T11:58:28.573Z,1.70
2019-05-26T11:59:28.493Z,1.70
2019-05-26T12:00:28.424Z,1.70
2019-05-26T12:01:28.333Z,1.70
2019-05-26T12:02:28.246Z,1.80
2019-05-26T12:03:28.165Z,1.80
2019-05-26T12:04:28.084Z,1.90
2019-05-26T12:05:28.004Z,1.70
2019-05-26T12:06:27.936Z,1.80
2019-05-26T12:07:27.837Z,1.40
2019-05-26T12:08:27.757Z,1.50
2019-05-26T12:09:27.672Z,1.80
2019-05-26T12:10:27.704Z,1.70
2019-05-26T12:11:27.522Z,1.60
2019-05-26T12:12:27.477Z,1.40
2019-05-26T12:13:27.346Z,1.70
2019-05-26T12:14:34.639Z,1.30
2019-05-26T12:15:27.188Z,1.70
2019-05-26T12:16:28.972Z,1.80
2019-05-26T12:17:27.126Z,1.90
2019-05-26T12:18:26.940Z,1.70
2019-05-26T12:19:26.857Z,1.60
2019-05-26T12:20:26.776Z,1.80
2019-05-26T12:21:26.705Z,1.60
2019-05-26T12:22:26.614Z,1.60
2019-05-26T12:23:26.532Z,2.00
2019-05-26T12:24:26.557Z,1.70
2019-05-26T12:25:26.367Z,1.70
2019-05-26T12:26:26.315Z,1.90
2019-05-26T12:27:26.198Z,1.90
2019-05-26T12:28:26.115Z,1.70
2019-05-26T12:29:26.031Z,1.40
2019-05-26T12:30:25.949Z,1.70
2019-05-26T12:31:25.986Z,1.60
2019-05-26T12:32:25.785Z,1.70
2019-05-26T12:33:25.699Z,1.70
2019-05-26T12:34:25.618Z,2.00
2019-05-26T12:35:25.533Z,1.70
2019-05-26T12:36:25.462Z,1.90
2019-05-26T12:37:25.378Z,1.90
2019-05-26T12:38:25.385Z,2.80
2019-05-26T12:39:25.197Z,2.00
2019-05-26T12:40:25.112Z,2.20
2019-05-26T12:41:25.040Z,1.60
2019-05-26T12:42:24.944Z,1.70
2019-05-26T12:43:24.863Z,1.50
2019-05-26T12:44:24.775Z,2.30
2019-05-26T12:45:24.795Z,2.20
2019-05-26T12:46:24.637Z,1.90
2019-05-26T12:47:24.526Z,2.00
2019-05-26T12:48:24.437Z,1.70
2019-05-26T12:49:27.594Z,1.80
2019-05-26T12:50:24.271Z,1.80
2019-05-26T12:51:24.196Z,1.80
2019-05-26T12:52:24.202Z,1.60
2019-05-26T12:53:24.013Z,2.10
2019-05-26T12:54:23.927Z,2.60
2019-05-26T12:55:23.841Z,1.80
2019-05-26T12:56:23.772Z,1.80
2019-05-26T12:57:23.674Z,1.60
2019-05-26T12:58:23.593Z,2.30
2019-05-26T12:59:23.615Z,1.50
2019-05-26T13:00:23.422Z,1.50
2019-05-26T13:01:23.338Z,2.80
2019-05-26T13:02:23.273Z,1.30
2019-05-26T13:03:23.166Z,3.10